createdAt,value
2023-02-08T00:01:00.831Z,8.55
2023-02-08T00:03:29.236Z,10.07
2023-02-08T00:05:56.193Z,9.95
2023-02-08T00:08:23.120Z,9.65
2023-02-08T00:10:50.182Z,7.35
2023-02-08T00:13:17.059Z,9.05
2023-02-08T00:15:45.008Z,9.13
2023-02-08T00:18:12.208Z,8.68
2023-02-08T00:20:40.252Z,7.60
2023-02-08T00:23:07.328Z,10.93
2023-02-08T00:25:34.342Z,9.50
2023-02-08T00:28:03.295Z,9.90
2023-02-08T00:32:58.327Z,10.73
2023-02-08T00:35:25.292Z,8.98
2023-02-08T00:37:52.738Z,7.28
2023-02-08T00:40:19.852Z,9.25
2023-02-08T00:42:46.797Z,9.95
2023-02-08T00:45:15.246Z,10.95
2023-02-08T00:47:42.152Z,9.75
2023-02-08T00:50:10.088Z,8.50
2023-02-08T00:52:37.283Z,9.05
2023-02-08T00:55:05.285Z,9.68
2023-02-08T00:57:33.083Z,8.93
2023-02-08T01:00:00.002Z,8.43
2023-02-08T01:02:26.990Z,9.05
2023-02-08T01:04:53.970Z,9.95
2023-02-08T01:07:20.856Z,10.52
2023-02-08T01:09:47.881Z,9.50
2023-02-08T01:12:14.772Z,9.38
2023-02-08T01:14:41.637Z,7.45
2023-02-08T01:17:08.481Z,8.00
2023-02-08T01:19:35.393Z,7.25
2023-02-08T01:22:03.364Z,7.20
2023-02-08T01:24:30.233Z,8.52
2023-02-08T01:26:57.341Z,8.77
2023-02-08T01:29:24.368Z,9.05
2023-02-08T01:31:51.287Z,8.40
2023-02-08T01:34:18.192Z,9.10
2023-02-08T01:36:45.048Z,8.20
2023-02-08T01:39:12.205Z,8.73
2023-02-08T01:41:43.583Z,10.40
2023-02-08T01:44:13.705Z,6.80
2023-02-08T01:49:17.657Z,7.30
2023-02-08T01:51:53.770Z,7.85
2023-02-08T01:54:21.228Z,9.00
2023-02-08T01:56:48.038Z,7.82
2023-02-08T01:59:21.444Z,8.82
2023-02-08T02:01:48.720Z,9.70
2023-02-08T02:04:15.605Z,7.18
2023-02-08T02:06:44.125Z,6.72
2023-02-08T02:09:26.286Z,8.30
2023-02-08T02:11:53.778Z,8.23
2023-02-08T02:14:20.969Z,7.53
2023-02-08T02:16:47.943Z,7.03
2023-02-08T02:19:47.953Z,7.95
2023-02-08T02:22:36.747Z,6.38
2023-02-08T02:25:25.269Z,6.22
2023-02-08T02:28:16.203Z,7.35
2023-02-08T02:30:52.354Z,6.53
2023-02-08T02:33:28.481Z,7.47
2023-02-08T02:36:03.180Z,6.50
2023-02-08T02:38:33.285Z,5.07
2023-02-08T02:41:42.573Z,7.57
2023-02-08T02:44:41.456Z,7.03
2023-02-08T02:47:12.955Z,5.28
2023-02-08T02:49:44.744Z,5.43
2023-02-08T02:52:12.739Z,5.80
2023-02-08T02:54:44.337Z,5.05
2023-02-08T02:57:12.723Z,4.78
2023-02-08T02:59:39.681Z,6.03
2023-02-08T03:02:06.811Z,6.15
2023-02-08T03:04:33.705Z,5.30
2023-02-08T03:07:18.788Z,5.22
2023-02-08T03:09:51.532Z,5.43
2023-02-08T03:12:57.217Z,5.53
2023-02-08T03:15:27.180Z,5.45
2023-02-08T03:18:32.322Z,5.20
2023-02-08T03:21:09.224Z,5.47
2023-02-08T03:24:02.911Z,4.55
2023-02-08T03:26:40.879Z,5.85
2023-02-08T03:29:12.144Z,5.68
2023-02-08T03:31:46.080Z,6.35
2023-02-08T03:34:16.968Z,4.97
2023-02-08T03:36:57.012Z,5.00
2023-02-08T03:39:26.703Z,5.05
2023-02-08T03:41:56.066Z,4.45
2023-02-08T03:44:26.428Z,4.27
2023-02-08T03:47:01.596Z,4.63
2023-02-08T03:49:31.126Z,4.85
2023-02-08T03:51:59.349Z,5.53
2023-02-08T03:54:26.937Z,4.28
2023-02-08T03:56:59.698Z,3.92
2023-02-08T03:59:33.112Z,5.03
2023-02-08T04:02:01.629Z,4.78
2023-02-08T04:04:31.017Z,4.63
2023-02-08T04:06:57.966Z,4.68
2023-02-08T04:09:24.821Z,4.97
2023-02-08T04:11:52.154Z,3.47
2023-02-08T04:14:19.073Z,4.10
2023-02-08T04:16:45.985Z,3.90
2023-02-08T04:19:12.908Z,4.18
2023-02-08T04:21:39.825Z,4.50
2023-02-08T04:24:06.867Z,4.47
2023-02-08T04:26:33.762Z,4.80
2023-02-08T04:29:00.880Z,4.93
2023-02-08T04:31:27.896Z,4.07
2023-02-08T04:33:54.795Z,3.17
2023-02-08T04:36:21.745Z,3.50
2023-02-08T04:38:48.726Z,3.47
2023-02-08T04:41:15.652Z,3.38
2023-02-08T04:43:42.568Z,4.15
2023-02-08T04:46:09.494Z,3.60
2023-02-08T04:48:36.425Z,3.65
2023-02-08T04:51:03.478Z,4.40
2023-02-08T04:53:30.418Z,4.88
2023-02-08T04:55:57.312Z,4.40
2023-02-08T04:58:24.211Z,3.55
2023-02-08T05:00:51.085Z,3.55
2023-02-08T05:03:18.752Z,3.47
2023-02-08T05:05:45.649Z,4.53
2023-02-08T05:08:12.576Z,4.28
2023-02-08T05:10:44.901Z,3.15
2023-02-08T05:13:11.790Z,3.78
2023-02-08T05:15:38.928Z,3.80
2023-02-08T05:18:05.881Z,3.28
2023-02-08T05:20:33.790Z,4.00
2023-02-08T05:23:00.760Z,4.38
2023-02-08T05:25:27.716Z,2.95
2023-02-08T05:27:54.667Z,4.30
2023-02-08T05:30:21.634Z,4.28
2023-02-08T05:32:48.963Z,4.47
2023-02-08T05:35:15.839Z,4.38
2023-02-08T05:37:42.758Z,4.05
2023-02-08T05:40:10.499Z,3.85
2023-02-08T05:42:37.407Z,3.25
2023-02-08T05:45:04.885Z,4.10
2023-02-08T05:47:31.841Z,4.22
2023-02-08T05:49:58.692Z,3.78
2023-02-08T05:52:25.610Z,3.70
2023-02-08T05:54:52.442Z,4.20
2023-02-08T05:57:19.336Z,4.30
2023-02-08T05:59:46.222Z,4.15
2023-02-08T06:02:13.136Z,3.35
2023-02-08T06:04:39.976Z,4.70
2023-02-08T06:07:06.854Z,4.15
2023-02-08T06:09:33.714Z,4.68
2023-02-08T06:12:00.580Z,4.45
2023-02-08T06:14:27.402Z,3.38
2023-02-08T06:16:54.387Z,3.97
2023-02-08T06:19:21.395Z,5.65
2023-02-08T06:21:48.368Z,4.97
2023-02-08T06:24:16.742Z,4.53
2023-02-08T06:26:44.123Z,3.88
2023-02-08T06:29:11.118Z,4.63
2023-02-08T06:31:38.092Z,4.45
2023-02-08T06:34:05.240Z,4.80
2023-02-08T06:36:32.411Z,3.05
2023-02-08T06:38:59.311Z,3.70
2023-02-08T06:41:26.164Z,3.40
2023-02-08T06:43:53.095Z,3.53
2023-02-08T06:46:19.928Z,4.70
2023-02-08T06:48:46.815Z,4.82
2023-02-08T06:51:13.779Z,4.50
2023-02-08T06:53:40.812Z,4.20
2023-02-08T06:56:07.873Z,5.30
2023-02-08T06:58:34.796Z,4.93
2023-02-08T07:01:01.696Z,5.03
2023-02-08T07:03:28.657Z,4.72
2023-02-08T07:06:04.460Z,4.25
2023-02-08T07:08:33.590Z,3.97
2023-02-08T07:11:00.553Z,4.25
2023-02-08T07:13:27.428Z,3.78
2023-02-08T07:15:54.316Z,4.13
2023-02-08T07:18:21.292Z,4.75
2023-02-08T07:20:49.033Z,5.07
2023-02-08T07:23:16.106Z,5.75
2023-02-08T07:25:43.116Z,5.03
2023-02-08T07:28:10.082Z,4.03
2023-02-08T07:30:37.165Z,5.45
2023-02-08T07:33:04.154Z,4.82
2023-02-08T07:35:31.003Z,4.28
2023-02-08T07:37:57.993Z,4.97
2023-02-08T07:40:24.861Z,5.35
2023-02-08T07:42:51.693Z,5.60
2023-02-08T07:45:32.017Z,5.43
2023-02-08T07:47:58.983Z,5.57
2023-02-08T07:50:25.924Z,5.53
2023-02-08T07:52:52.828Z,4.88
2023-02-08T07:55:20.598Z,5.15
2023-02-08T07:57:48.574Z,5.28
2023-02-08T08:00:16.682Z,5.95
2023-02-08T08:02:43.735Z,5.50
2023-02-08T08:05:10.778Z,5.68
2023-02-08T08:07:37.681Z,6.38
2023-02-08T08:10:04.877Z,6.85
2023-02-08T08:12:31.837Z,5.78
2023-02-08T08:14:58.709Z,6.03
2023-02-08T08:17:25.662Z,5.95
2023-02-08T08:19:52.542Z,5.88
2023-02-08T08:22:19.441Z,5.22
2023-02-08T08:24:46.308Z,6.10
2023-02-08T08:27:13.315Z,7.15
2023-02-08T08:29:40.211Z,5.60
2023-02-08T08:32:07.816Z,6.32
2023-02-08T08:34:35.063Z,5.53
2023-02-08T08:37:02.420Z,5.60
2023-02-08T08:39:29.348Z,6.80
2023-02-08T08:42:00.111Z,6.07
2023-02-08T08:44:27.080Z,6.25
2023-02-08T08:46:57.501Z,6.47
2023-02-08T08:49:24.984Z,6.10
2023-02-08T08:51:52.044Z,8.45
2023-02-08T08:54:19.105Z,5.97
2023-02-08T08:56:45.989Z,5.43
2023-02-08T08:59:12.899Z,6.70
2023-02-08T09:01:41.409Z,6.00
2023-02-08T09:04:09.450Z,6.70
2023-02-08T09:06:36.554Z,6.25
2023-02-08T09:09:03.607Z,7.07
2023-02-08T09:11:30.526Z,6.78
2023-02-08T09:13:57.811Z,7.10
2023-02-08T09:16:24.906Z,6.30
2023-02-08T09:18:51.927Z,6.45
2023-02-08T09:21:20.479Z,6.15
2023-02-08T09:23:50.263Z,7.65
2023-02-08T09:26:18.391Z,7.80
2023-02-08T09:28:45.391Z,7.15
2023-02-08T09:31:26.737Z,7.82
2023-02-08T09:33:54.970Z,6.78
2023-02-08T09:36:23.294Z,7.30
2023-02-08T09:38:50.870Z,6.88
2023-02-08T09:41:21.932Z,8.63
2023-02-08T09:44:26.366Z,8.43
2023-02-08T09:46:59.069Z,7.43
2023-02-08T09:49:33.036Z,8.80
2023-02-08T09:52:05.605Z,8.38
2023-02-08T09:54:35.392Z,8.88
2023-02-08T09:57:04.209Z,9.13
2023-02-08T09:59:31.823Z,10.38
2023-02-08T10:02:15.019Z,10.00
2023-02-08T10:04:53.270Z,11.52
2023-02-08T10:07:20.160Z,12.52
2023-02-08T10:09:47.033Z,11.73
2023-02-08T10:12:32.239Z,10.73
2023-02-08T10:15:02.380Z,13.45
2023-02-08T10:17:35.399Z,12.35
2023-02-08T10:20:21.027Z,12.60
2023-02-08T10:22:50.724Z,15.05
2023-02-08T10:25:20.911Z,13.55
2023-02-08T10:31:10.010Z,16.17
2023-02-08T10:33:49.388Z,14.75
2023-02-08T10:36:21.010Z,13.55
2023-02-08T10:38:49.733Z,14.00
2023-02-08T10:41:22.042Z,15.23
2023-02-08T10:44:08.364Z,14.55
2023-02-08T10:47:07.645Z,15.23
2023-02-08T10:49:50.277Z,16.45
2023-02-08T10:52:17.204Z,16.50
2023-02-08T10:54:44.084Z,16.13
2023-02-08T10:57:19.502Z,16.70
2023-02-08T10:59:49.341Z,15.85
2023-02-08T11:02:26.893Z,16.67
2023-02-08T11:05:03.695Z,14.73
2023-02-08T11:07:31.015Z,14.88
2023-02-08T11:10:24.593Z,13.98
2023-02-08T11:13:14.464Z,15.52
2023-02-08T11:15:48.771Z,16.67
2023-02-08T11:18:26.771Z,14.07
2023-02-08T11:20:56.284Z,14.15
2023-02-08T11:23:31.439Z,14.80
2023-02-08T11:26:35.339Z,14.95
2023-02-08T11:29:12.512Z,13.18
2023-02-08T11:31:40.915Z,13.10
2023-02-08T11:34:11.757Z,11.80
2023-02-08T11:36:46.819Z,12.48
2023-02-08T11:39:25.381Z,12.98
2023-02-08T11:41:54.119Z,14.60
2023-02-08T11:44:36.184Z,12.85
2023-02-08T11:47:04.625Z,12.27
2023-02-08T11:49:45.125Z,12.30
2023-02-08T11:52:31.343Z,12.80
2023-02-08T11:55:18.611Z,12.43
2023-02-08T11:58:14.793Z,12.35
2023-02-08T12:00:41.713Z,13.23
2023-02-08T12:03:14.591Z,13.38
2023-02-08T12:06:20.358Z,11.52
2023-02-08T12:09:24.983Z,13.07
2023-02-08T12:12:01.811Z,12.43
2023-02-08T12:14:37.735Z,15.38
2023-02-08T12:17:27.259Z,14.30
2023-02-08T12:20:00.332Z,12.80
2023-02-08T12:22:28.288Z,11.18
2023-02-08T12:25:42.748Z,12.02
2023-02-08T12:28:15.821Z,12.57
2023-02-08T12:31:06.682Z,11.20
2023-02-08T12:33:47.189Z,12.88
2023-02-08T12:36:41.367Z,10.45
2023-02-08T12:39:54.032Z,10.65
2023-02-08T12:42:38.707Z,10.23
2023-02-08T12:45:27.234Z,9.57
2023-02-08T12:48:04.433Z,9.68
2023-02-08T12:51:01.592Z,9.40
2023-02-08T12:53:32.021Z,9.60
2023-02-08T12:56:06.917Z,10.73
2023-02-08T12:59:08.217Z,11.25
2023-02-08T13:01:45.039Z,12.18
2023-02-08T13:04:17.384Z,10.57
2023-02-08T13:06:57.421Z,11.40
2023-02-08T13:09:54.121Z,10.85
2023-02-08T13:12:28.589Z,12.48
2023-02-08T13:15:03.123Z,12.20
2023-02-08T13:17:39.755Z,12.80
2023-02-08T13:20:25.560Z,12.68
2023-02-08T13:22:52.720Z,12.57
2023-02-08T13:25:36.044Z,12.00
2023-02-08T13:28:09.166Z,11.65
2023-02-08T13:30:38.848Z,9.82
2023-02-08T13:33:15.068Z,9.63
2023-02-08T13:35:42.380Z,10.55
2023-02-08T13:38:34.959Z,10.73
2023-02-08T13:41:26.883Z,10.07
2023-02-08T13:44:18.808Z,9.77
2023-02-08T13:46:49.706Z,10.70
2023-02-08T13:49:42.923Z,9.02
2023-02-08T13:52:10.903Z,10.02
2023-02-08T13:54:38.052Z,11.13
2023-02-08T13:57:26.284Z,11.82
2023-02-08T14:00:17.747Z,9.73
2023-02-08T14:03:01.774Z,11.60
2023-02-08T14:05:50.379Z,11.73
2023-02-08T14:08:24.019Z,12.88
2023-02-08T14:11:03.583Z,13.65
2023-02-08T14:13:32.841Z,17.35
2023-02-08T14:16:29.759Z,11.90
2023-02-08T14:19:01.434Z,13.32
2023-02-08T14:21:38.502Z,12.23
2023-02-08T14:24:26.856Z,13.57
2023-02-08T14:27:28.430Z,12.90
2023-02-08T14:30:17.305Z,13.23
2023-02-08T14:32:49.093Z,12.30
2023-02-08T14:35:16.004Z,13.75
2023-02-08T14:37:44.387Z,13.40
2023-02-08T14:40:25.185Z,11.52
2023-02-08T14:42:55.772Z,11.95
2023-02-08T14:45:30.150Z,12.50
2023-02-08T14:48:21.695Z,12.07
2023-02-08T14:50:51.725Z,12.90
2023-02-08T14:53:27.512Z,13.68
2023-02-08T14:56:03.759Z,12.02
2023-02-08T14:58:33.141Z,10.88
2023-02-08T15:01:12.976Z,13.30
2023-02-08T15:03:40.347Z,13.05
2023-02-08T15:06:13.642Z,10.75
2023-02-08T15:08:40.561Z,10.73
2023-02-08T15:11:24.801Z,11.40
2023-02-08T15:13:53.135Z,9.25
2023-02-08T15:16:20.058Z,9.25
2023-02-08T15:18:47.606Z,8.85
2023-02-08T15:21:19.042Z,8.88
2023-02-08T15:24:05.843Z,7.22
2023-02-08T15:26:33.030Z,8.32
2023-02-08T15:29:01.082Z,7.13
2023-02-08T15:31:31.829Z,6.75
2023-02-08T15:33:59.537Z,6.32
2023-02-08T15:36:29.917Z,7.07
2023-02-08T15:38:57.808Z,8.05
2023-02-08T15:41:26.684Z,7.82
2023-02-08T15:44:02.035Z,8.38
2023-02-08T15:46:28.990Z,6.85
2023-02-08T15:48:57.520Z,7.18
2023-02-08T15:51:24.834Z,7.65
2023-02-08T15:53:53.990Z,7.55
2023-02-08T15:56:38.676Z,8.63
2023-02-08T15:59:07.349Z,8.85
2023-02-08T16:01:34.741Z,8.43
2023-02-08T16:04:06.146Z,8.20
2023-02-08T16:06:39.065Z,8.93
2023-02-08T16:09:06.868Z,9.20
2023-02-08T16:11:35.076Z,11.38
2023-02-08T16:14:03.415Z,10.55
2023-02-08T16:16:40.285Z,9.90
2023-02-08T16:19:20.400Z,10.27
2023-02-08T16:21:47.408Z,8.63
2023-02-08T16:24:14.278Z,9.65
2023-02-08T16:26:42.210Z,10.82
2023-02-08T16:29:20.732Z,9.88
2023-02-08T16:31:48.732Z,10.00
2023-02-08T16:34:17.611Z,10.82
2023-02-08T16:36:49.814Z,9.73
2023-02-08T16:39:25.623Z,10.32
2023-02-08T16:42:13.630Z,9.25
2023-02-08T16:44:41.691Z,9.82
2023-02-08T16:47:25.452Z,9.15
2023-02-08T16:49:52.331Z,8.93
2023-02-08T16:52:19.181Z,9.10
2023-02-08T16:54:46.126Z,9.55
2023-02-08T16:57:13.001Z,9.73
2023-02-08T16:59:40.035Z,9.98
2023-02-08T17:02:12.022Z,9.35
2023-02-08T17:04:39.408Z,9.43
2023-02-08T17:07:06.307Z,9.55
2023-02-08T17:09:33.175Z,11.25
2023-02-08T17:12:00.145Z,9.73
2023-02-08T17:14:27.168Z,9.95
2023-02-08T17:16:53.991Z,10.05
2023-02-08T17:19:22.499Z,10.40
2023-02-08T17:21:49.343Z,10.25
2023-02-08T17:24:17.421Z,10.25
2023-02-08T17:26:44.400Z,8.88
2023-02-08T17:29:12.102Z,9.07
2023-02-08T17:31:39.055Z,8.48
2023-02-08T17:34:06.043Z,8.75
2023-02-08T17:36:34.742Z,7.28
2023-02-08T17:39:01.956Z,8.15
2023-02-08T17:41:28.980Z,7.70
2023-02-08T17:43:56.282Z,9.05
2023-02-08T17:46:25.061Z,8.15
2023-02-08T17:48:52.094Z,8.38
2023-02-08T17:51:21.227Z,7.75
2023-02-08T17:53:48.233Z,8.50
2023-02-08T17:56:18.099Z,8.07
2023-02-08T17:58:45.534Z,8.95
2023-02-08T18:01:20.131Z,8.77
2023-02-08T18:03:47.931Z,8.77
2023-02-08T18:06:15.547Z,7.70
2023-02-08T18:08:42.426Z,8.88
2023-02-08T18:11:13.003Z,8.65
2023-02-08T18:13:40.018Z,9.32
2023-02-08T18:16:11.822Z,8.32
2023-02-08T18:18:38.852Z,7.88
2023-02-08T18:21:19.365Z,8.65
2023-02-08T18:23:46.595Z,9.60
2023-02-08T18:26:17.844Z,9.00
2023-02-08T18:28:44.905Z,10.13
2023-02-08T18:31:14.959Z,8.95
2023-02-08T18:36:11.578Z,11.10
2023-02-08T18:38:46.316Z,11.18
2023-02-08T18:41:18.958Z,9.82
2023-02-08T18:43:46.342Z,8.98
2023-02-08T18:46:15.445Z,9.35
2023-02-08T18:48:42.419Z,10.55
2023-02-08T18:51:09.515Z,10.52
2023-02-08T18:53:37.996Z,9.65
2023-02-08T18:56:06.099Z,10.45
2023-02-08T18:58:33.368Z,9.40
2023-02-08T19:01:07.922Z,10.52
2023-02-08T19:03:35.947Z,8.52
2023-02-08T19:06:04.627Z,8.32
2023-02-08T19:08:31.778Z,8.57
2023-02-08T19:10:58.652Z,8.25
2023-02-08T19:13:25.529Z,7.57
2023-02-08T19:15:52.469Z,8.02
2023-02-08T19:18:19.328Z,8.88
2023-02-08T19:20:46.232Z,9.90
2023-02-08T19:23:13.120Z,8.82
2023-02-08T19:25:40.205Z,9.15
2023-02-08T19:28:07.351Z,10.70
2023-02-08T19:30:34.296Z,8.90
2023-02-08T19:33:01.210Z,8.23
2023-02-08T19:35:28.104Z,8.88
2023-02-08T19:37:55.032Z,10.07
2023-02-08T19:40:23.156Z,8.07
2023-02-08T19:42:50.088Z,9.38
2023-02-08T19:45:16.990Z,9.63
2023-02-08T19:47:51.468Z,9.18
2023-02-08T19:50:18.843Z,10.57
2023-02-08T19:52:45.724Z,9.38
2023-02-08T19:55:12.630Z,8.90
2023-02-08T19:57:40.117Z,10.45
2023-02-08T20:00:17.588Z,9.50
2023-02-08T20:02:49.745Z,8.30
2023-02-08T20:05:17.284Z,9.00
2023-02-08T20:07:44.170Z,7.57
2023-02-08T20:10:11.112Z,8.93
2023-02-08T20:12:37.967Z,9.57
2023-02-08T20:15:05.198Z,9.45
2023-02-08T20:17:32.023Z,10.05
2023-02-08T20:19:58.896Z,9.85
2023-02-08T20:22:25.750Z,8.35
2023-02-08T20:24:52.672Z,9.95
2023-02-08T20:27:19.615Z,9.77
2023-02-08T20:29:46.652Z,10.23
2023-02-08T20:32:13.621Z,7.43
2023-02-08T20:34:47.442Z,8.38
2023-02-08T20:37:22.994Z,8.63
2023-02-08T20:39:49.904Z,9.45
2023-02-08T20:42:16.855Z,9.63
2023-02-08T20:44:43.773Z,10.15
2023-02-08T20:47:10.932Z,9.15
2023-02-08T20:49:38.980Z,8.45
2023-02-08T20:52:05.934Z,9.07
2023-02-08T20:54:33.440Z,7.75
2023-02-08T20:57:00.565Z,9.55
2023-02-08T20:59:27.546Z,8.90
2023-02-08T21:01:54.695Z,9.13
2023-02-08T21:04:23.575Z,8.10
2023-02-08T21:06:51.086Z,7.88
2023-02-08T21:09:18.389Z,7.97
2023-02-08T21:11:45.674Z,8.60
2023-02-08T21:14:19.110Z,9.32
2023-02-08T21:16:48.353Z,9.27
2023-02-08T21:19:16.193Z,10.05
2023-02-08T21:21:43.240Z,7.75
2023-02-08T21:24:11.734Z,9.02
2023-02-08T21:26:38.715Z,8.27
2023-02-08T21:29:06.555Z,8.52
2023-02-08T21:31:33.924Z,8.00
2023-02-08T21:34:01.609Z,8.88
2023-02-08T21:36:28.641Z,8.93
2023-02-08T21:38:56.648Z,9.30
2023-02-08T21:41:25.457Z,10.90
2023-02-08T21:43:54.203Z,10.35
2023-02-08T21:46:21.198Z,9.95
2023-02-08T21:49:06.783Z,8.18
2023-02-08T21:51:52.102Z,8.48
2023-02-08T21:54:40.798Z,9.48
2023-02-08T21:57:18.989Z,10.15
2023-02-08T21:59:46.919Z,11.80
2023-02-08T22:02:15.812Z,8.98
2023-02-08T22:04:46.840Z,8.50
2023-02-08T22:07:13.852Z,9.90
2023-02-08T22:09:41.685Z,11.05
2023-02-08T22:12:11.012Z,10.98
2023-02-08T22:14:37.888Z,10.40
2023-02-08T22:17:04.801Z,9.88
2023-02-08T22:19:31.772Z,9.27
2023-02-08T22:21:58.636Z,10.20
2023-02-08T22:24:25.533Z,11.57
2023-02-08T22:26:52.531Z,10.23
2023-02-08T22:29:19.661Z,10.65
2023-02-08T22:31:46.644Z,10.00
2023-02-08T22:34:13.556Z,11.80
2023-02-08T22:36:40.427Z,11.50
2023-02-08T22:39:07.277Z,10.10
2023-02-08T22:41:34.215Z,8.68
2023-02-08T22:44:01.153Z,9.23
2023-02-08T22:46:28.058Z,11.00
2023-02-08T22:48:54.927Z,10.90
2023-02-08T22:51:23.590Z,10.95
2023-02-08T22:53:50.445Z,10.55
2023-02-08T22:56:17.783Z,11.93
2023-02-08T22:58:44.642Z,10.55
2023-02-08T23:01:12.468Z,10.88
2023-02-08T23:03:39.498Z,10.23
2023-02-08T23:06:08.086Z,11.52
2023-02-08T23:08:35.268Z,8.95
2023-02-08T23:11:03.677Z,9.75
2023-02-08T23:13:31.044Z,10.93
2023-02-08T23:15:58.101Z,11.32
2023-02-08T23:18:25.156Z,9.77
2023-02-08T23:20:52.063Z,11.05
2023-02-08T23:23:19.018Z,11.50
2023-02-08T23:25:45.867Z,10.32
2023-02-08T23:28:12.950Z,9.75
2023-02-08T23:30:40.910Z,10.13
2023-02-08T23:33:08.006Z,11.82
2023-02-08T23:35:34.848Z,11.10
2023-02-08T23:38:01.878Z,10.77
2023-02-08T23:40:28.828Z,12.65
2023-02-08T23:42:55.724Z,10.95
2023-02-08T23:45:22.924Z,9.90
2023-02-08T23:47:49.877Z,11.55
2023-02-08T23:50:16.801Z,10.55
2023-02-08T23:52:43.699Z,11.27
2023-02-08T23:55:10.532Z,11.25
2023-02-08T23:57:37.588Z,10.20
